sensor_id;sensor_type;location;lat;lon;timestamp;temperature;humidity
43772;HTU21D;59066;54.782;32.024;2023-12-22T00:01:21;2.08;100.17
43772;HTU21D;59066;54.782;32.024;2023-12-22T00:03:49;2.02;100.05
43772;HTU21D;59066;54.782;32.024;2023-12-22T00:06:17;1.95;99.99
43772;HTU21D;59066;54.782;32.024;2023-12-22T00:08:45;1.99;100.32
43772;HTU21D;59066;54.782;32.024;2023-12-22T00:11:12;2.00;100.29
43772;HTU21D;59066;54.782;32.024;2023-12-22T00:13:40;2.05;100.44
43772;HTU21D;59066;54.782;32.024;2023-12-22T00:16:08;2.10;100.18
43772;HTU21D;59066;54.782;32.024;2023-12-22T00:18:36;2.05;99.86
43772;HTU21D;59066;54.782;32.024;2023-12-22T00:21:04;2.09;100.10
43772;HTU21D;59066;54.782;32.024;2023-12-22T00:23:31;2.03;100.03
43772;HTU21D;59066;54.782;32.024;2023-12-22T00:26:04;2.11;100.33
43772;HTU21D;59066;54.782;32.024;2023-12-22T00:28:32;2.06;99.97
43772;HTU21D;59066;54.782;32.024;2023-12-22T00:31:00;2.02;99.95
43772;HTU21D;59066;54.782;32.024;2023-12-22T00:33:27;2.09;100.13
43772;HTU21D;59066;54.782;32.024;2023-12-22T00:35:55;2.10;99.90
43772;HTU21D;59066;54.782;32.024;2023-12-22T00:38:22;2.02;99.93
43772;HTU21D;59066;54.782;32.024;2023-12-22T00:40:50;2.11;100.08
43772;HTU21D;59066;54.782;32.024;2023-12-22T00:43:18;2.13;99.86
43772;HTU21D;59066;54.782;32.024;2023-12-22T00:45:45;2.12;99.77
43772;HTU21D;59066;54.782;32.024;2023-12-22T00:48:13;2.13;99.73
43772;HTU21D;59066;54.782;32.024;2023-12-22T00:50:41;2.17;99.77
43772;HTU21D;59066;54.782;32.024;2023-12-22T00:53:08;2.15;99.45
43772;HTU21D;59066;54.782;32.024;2023-12-22T00:55:36;2.10;99.45
43772;HTU21D;59066;54.782;32.024;2023-12-22T00:58:04;2.16;99.64
43772;HTU21D;59066;54.782;32.024;2023-12-22T01:00:31;2.20;99.61
43772;HTU21D;59066;54.782;32.024;2023-12-22T01:02:59;2.23;99.49
43772;HTU21D;59066;54.782;32.024;2023-12-22T01:05:27;2.21;99.26
43772;HTU21D;59066;54.782;32.024;2023-12-22T01:07:54;2.14;98.97
43772;HTU21D;59066;54.782;32.024;2023-12-22T01:10:22;2.19;99.01
43772;HTU21D;59066;54.782;32.024;2023-12-22T01:12:49;2.13;98.94
43772;HTU21D;59066;54.782;32.024;2023-12-22T01:15:17;2.17;99.06
43772;HTU21D;59066;54.782;32.024;2023-12-22T01:17:45;2.13;98.73
43772;HTU21D;59066;54.782;32.024;2023-12-22T01:20:13;2.13;98.74
43772;HTU21D;59066;54.782;32.024;2023-12-22T01:22:41;2.13;98.82
43772;HTU21D;59066;54.782;32.024;2023-12-22T01:25:09;2.15;98.53
43772;HTU21D;59066;54.782;32.024;2023-12-22T01:27:36;2.14;98.65
43772;HTU21D;59066;54.782;32.024;2023-12-22T01:30:05;2.20;98.59
43772;HTU21D;59066;54.782;32.024;2023-12-22T01:32:33;2.26;98.67
43772;HTU21D;59066;54.782;32.024;2023-12-22T01:35:03;2.27;98.22
43772;HTU21D;59066;54.782;32.024;2023-12-22T01:37:30;2.23;98.45
43772;HTU21D;59066;54.782;32.024;2023-12-22T01:39:58;2.26;98.47
43772;HTU21D;59066;54.782;32.024;2023-12-22T01:42:26;2.26;98.40
43772;HTU21D;59066;54.782;32.024;2023-12-22T01:44:54;2.28;98.29
43772;HTU21D;59066;54.782;32.024;2023-12-22T01:47:21;2.27;98.29
43772;HTU21D;59066;54.782;32.024;2023-12-22T01:49:49;2.25;98.09
43772;HTU21D;59066;54.782;32.024;2023-12-22T01:52:18;2.21;97.94
43772;HTU21D;59066;54.782;32.024;2023-12-22T01:54:47;2.23;97.87
43772;HTU21D;59066;54.782;32.024;2023-12-22T01:57:15;2.22;97.94
43772;HTU21D;59066;54.782;32.024;2023-12-22T01:59:46;2.17;97.85
43772;HTU21D;59066;54.782;32.024;2023-12-22T02:02:16;2.19;97.90
43772;HTU21D;59066;54.782;32.024;2023-12-22T02:04:45;2.17;97.90
43772;HTU21D;59066;54.782;32.024;2023-12-22T02:07:14;2.14;97.71
43772;HTU21D;59066;54.782;32.024;2023-12-22T02:09:42;2.12;97.70
43772;HTU21D;59066;54.782;32.024;2023-12-22T02:12:09;2.19;97.82
43772;HTU21D;59066;54.782;32.024;2023-12-22T02:14:37;2.16;97.31
43772;HTU21D;59066;54.782;32.024;2023-12-22T02:17:35;2.17;97.61
43772;HTU21D;59066;54.782;32.024;2023-12-22T02:20:07;2.17;97.28
43772;HTU21D;59066;54.782;32.024;2023-12-22T02:22:35;2.13;97.26
43772;HTU21D;59066;54.782;32.024;2023-12-22T02:25:03;2.20;97.18
43772;HTU21D;59066;54.782;32.024;2023-12-22T02:27:36;2.23;97.14
43772;HTU21D;59066;54.782;32.024;2023-12-22T02:30:07;2.30;96.74
43772;HTU21D;59066;54.782;32.024;2023-12-22T02:32:40;2.30;96.81
43772;HTU21D;59066;54.782;32.024;2023-12-22T02:35:10;2.25;96.25
43772;HTU21D;59066;54.782;32.024;2023-12-22T02:37:39;2.25;96.34
43772;HTU21D;59066;54.782;32.024;2023-12-22T02:40:09;2.31;95.59
43772;HTU21D;59066;54.782;32.024;2023-12-22T02:42:38;2.26;95.36
43772;HTU21D;59066;54.782;32.024;2023-12-22T02:45:06;2.28;95.34
43772;HTU21D;59066;54.782;32.024;2023-12-22T02:47:40;2.29;95.24
43772;HTU21D;59066;54.782;32.024;2023-12-22T02:50:09;2.27;95.23
43772;HTU21D;59066;54.782;32.024;2023-12-22T02:52:36;2.28;94.95
43772;HTU21D;59066;54.782;32.024;2023-12-22T02:55:05;2.21;94.95
43772;HTU21D;59066;54.782;32.024;2023-12-22T02:57:33;2.23;95.26
43772;HTU21D;59066;54.782;32.024;2023-12-22T03:00:01;2.15;95.21
43772;HTU21D;59066;54.782;32.024;2023-12-22T03:02:29;2.11;95.30
43772;HTU21D;59066;54.782;32.024;2023-12-22T03:04:57;2.06;95.20
43772;HTU21D;59066;54.782;32.024;2023-12-22T03:07:28;2.00;95.45
43772;HTU21D;59066;54.782;32.024;2023-12-22T03:09:56;1.97;95.82
43772;HTU21D;59066;54.782;32.024;2023-12-22T03:12:23;1.84;95.82
43772;HTU21D;59066;54.782;32.024;2023-12-22T03:14:51;1.73;96.16
43772;HTU21D;59066;54.782;32.024;2023-12-22T03:17:19;1.77;96.83
43772;HTU21D;59066;54.782;32.024;2023-12-22T03:19:47;1.78;97.00
43772;HTU21D;59066;54.782;32.024;2023-12-22T03:22:15;1.71;97.00
43772;HTU21D;59066;54.782;32.024;2023-12-22T03:24:43;1.77;97.44
43772;HTU21D;59066;54.782;32.024;2023-12-22T03:27:11;1.73;97.16
43772;HTU21D;59066;54.782;32.024;2023-12-22T03:29:43;1.70;97.59
43772;HTU21D;59066;54.782;32.024;2023-12-22T03:32:11;1.70;97.78
43772;HTU21D;59066;54.782;32.024;2023-12-22T03:34:39;1.63;97.66
43772;HTU21D;59066;54.782;32.024;2023-12-22T03:37:07;1.63;97.84
43772;HTU21D;59066;54.782;32.024;2023-12-22T03:39:34;1.62;98.22
43772;HTU21D;59066;54.782;32.024;2023-12-22T03:42:01;1.62;98.39
43772;HTU21D;59066;54.782;32.024;2023-12-22T03:44:29;1.52;98.29
43772;HTU21D;59066;54.782;32.024;2023-12-22T03:46:57;1.49;98.41
43772;HTU21D;59066;54.782;32.024;2023-12-22T03:49:24;1.46;98.64
43772;HTU21D;59066;54.782;32.024;2023-12-22T03:51:52;1.43;98.84
43772;HTU21D;59066;54.782;32.024;2023-12-22T03:54:20;1.48;99.13
43772;HTU21D;59066;54.782;32.024;2023-12-22T03:56:48;1.50;99.28
43772;HTU21D;59066;54.782;32.024;2023-12-22T03:59:15;1.54;99.41
43772;HTU21D;59066;54.782;32.024;2023-12-22T04:01:50;1.54;99.27
43772;HTU21D;59066;54.782;32.024;2023-12-22T04:04:19;1.60;99.40
43772;HTU21D;59066;54.782;32.024;2023-12-22T04:06:50;1.58;99.22
43772;HTU21D;59066;54.782;32.024;2023-12-22T04:09:17;1.58;99.26
43772;HTU21D;59066;54.782;32.024;2023-12-22T04:11:45;1.64;99.58
43772;HTU21D;59066;54.782;32.024;2023-12-22T04:14:13;1.66;99.47
43772;HTU21D;59066;54.782;32.024;2023-12-22T04:16:40;1.64;99.21
43772;HTU21D;59066;54.782;32.024;2023-12-22T04:19:08;1.64;99.35
43772;HTU21D;59066;54.782;32.024;2023-12-22T04:21:38;1.68;99.38
43772;HTU21D;59066;54.782;32.024;2023-12-22T04:24:05;1.71;99.40
43772;HTU21D;59066;54.782;32.024;2023-12-22T04:26:33;1.75;99.34
43772;HTU21D;59066;54.782;32.024;2023-12-22T04:29:01;1.71;99.09
43772;HTU21D;59066;54.782;32.024;2023-12-22T04:31:28;1.71;99.05
43772;HTU21D;59066;54.782;32.024;2023-12-22T04:33:56;1.71;99.26
43772;HTU21D;59066;54.782;32.024;2023-12-22T04:36:24;1.73;99.29
43772;HTU21D;59066;54.782;32.024;2023-12-22T04:38:51;1.69;99.38
43772;HTU21D;59066;54.782;32.024;2023-12-22T04:41:19;1.67;99.35
43772;HTU21D;59066;54.782;32.024;2023-12-22T04:43:46;1.69;99.59
43772;HTU21D;59066;54.782;32.024;2023-12-22T04:46:14;1.68;99.26
43772;HTU21D;59066;54.782;32.024;2023-12-22T04:48:42;1.72;99.38
43772;HTU21D;59066;54.782;32.024;2023-12-22T04:51:09;1.72;99.13
43772;HTU21D;59066;54.782;32.024;2023-12-22T04:53:38;1.70;98.98
43772;HTU21D;59066;54.782;32.024;2023-12-22T04:56:06;1.77;99.04
43772;HTU21D;59066;54.782;32.024;2023-12-22T04:58:34;1.80;98.83
43772;HTU21D;59066;54.782;32.024;2023-12-22T05:01:01;1.84;98.82
43772;HTU21D;59066;54.782;32.024;2023-12-22T05:03:30;1.86;98.73
43772;HTU21D;59066;54.782;32.024;2023-12-22T05:05:57;1.88;98.96
43772;HTU21D;59066;54.782;32.024;2023-12-22T05:08:25;1.94;98.91
43772;HTU21D;59066;54.782;32.024;2023-12-22T05:10:52;1.98;98.71
43772;HTU21D;59066;54.782;32.024;2023-12-22T05:13:21;1.92;98.34
43772;HTU21D;59066;54.782;32.024;2023-12-22T05:15:49;1.92;98.51
43772;HTU21D;59066;54.782;32.024;2023-12-22T05:18:17;1.86;98.35
43772;HTU21D;59066;54.782;32.024;2023-12-22T05:20:44;1.86;98.27
43772;HTU21D;59066;54.782;32.024;2023-12-22T05:23:12;1.84;98.14
43772;HTU21D;59066;54.782;32.024;2023-12-22T05:25:40;1.85;98.02
43772;HTU21D;59066;54.782;32.024;2023-12-22T05:28:08;1.81;97.90
43772;HTU21D;59066;54.782;32.024;2023-12-22T05:30:36;1.86;97.90
43772;HTU21D;59066;54.782;32.024;2023-12-22T05:33:04;1.85;97.84
43772;HTU21D;59066;54.782;32.024;2023-12-22T05:35:31;1.80;97.89
43772;HTU21D;59066;54.782;32.024;2023-12-22T05:38:00;1.80;97.98
43772;HTU21D;59066;54.782;32.024;2023-12-22T05:40:28;1.79;98.04
43772;HTU21D;59066;54.782;32.024;2023-12-22T05:42:56;1.81;98.06
43772;HTU21D;59066;54.782;32.024;2023-12-22T05:45:23;1.79;97.85
43772;HTU21D;59066;54.782;32.024;2023-12-22T05:47:54;1.76;97.74
43772;HTU21D;59066;54.782;32.024;2023-12-22T05:50:22;1.68;97.71
43772;HTU21D;59066;54.782;32.024;2023-12-22T05:52:49;1.66;97.87
43772;HTU21D;59066;54.782;32.024;2023-12-22T05:55:17;1.63;98.03
43772;HTU21D;59066;54.782;32.024;2023-12-22T05:57:45;1.63;98.17
43772;HTU21D;59066;54.782;32.024;2023-12-22T06:00:14;1.62;98.30
43772;HTU21D;59066;54.782;32.024;2023-12-22T06:02:42;1.61;98.53
43772;HTU21D;59066;54.782;32.024;2023-12-22T06:05:10;1.62;98.64
43772;HTU21D;59066;54.782;32.024;2023-12-22T06:07:38;1.61;98.54
43772;HTU21D;59066;54.782;32.024;2023-12-22T06:10:06;1.60;98.48
43772;HTU21D;59066;54.782;32.024;2023-12-22T06:12:36;1.63;98.78
43772;HTU21D;59066;54.782;32.024;2023-12-22T06:15:05;1.65;98.71
43772;HTU21D;59066;54.782;32.024;2023-12-22T06:17:32;1.60;98.45
43772;HTU21D;59066;54.782;32.024;2023-12-22T06:20:00;1.55;98.59
43772;HTU21D;59066;54.782;32.024;2023-12-22T06:22:28;1.54;98.81
43772;HTU21D;59066;54.782;32.024;2023-12-22T06:24:55;1.53;99.04
43772;HTU21D;59066;54.782;32.024;2023-12-22T06:27:23;1.52;98.93
43772;HTU21D;59066;54.782;32.024;2023-12-22T06:29:50;1.51;99.32
43772;HTU21D;59066;54.782;32.024;2023-12-22T06:32:19;1.55;99.35
43772;HTU21D;59066;54.782;32.024;2023-12-22T06:34:47;1.56;99.30
43772;HTU21D;59066;54.782;32.024;2023-12-22T06:37:14;1.60;99.44
43772;HTU21D;59066;54.782;32.024;2023-12-22T06:39:42;1.61;99.35
43772;HTU21D;59066;54.782;32.024;2023-12-22T06:42:10;1.63;99.51
43772;HTU21D;59066;54.782;32.024;2023-12-22T06:44:43;1.62;99.42
43772;HTU21D;59066;54.782;32.024;2023-12-22T06:47:11;1.62;99.55
43772;HTU21D;59066;54.782;32.024;2023-12-22T06:49:39;1.67;99.60
43772;HTU21D;59066;54.782;32.024;2023-12-22T06:52:07;1.70;99.63
43772;HTU21D;59066;54.782;32.024;2023-12-22T06:54:35;1.70;99.27
43772;HTU21D;59066;54.782;32.024;2023-12-22T06:57:02;1.66;99.14
43772;HTU21D;59066;54.782;32.024;2023-12-22T06:59:30;1.64;99.35
43772;HTU21D;59066;54.782;32.024;2023-12-22T07:01:59;1.69;99.44
43772;HTU21D;59066;54.782;32.024;2023-12-22T07:04:31;1.64;99.34
43772;HTU21D;59066;54.782;32.024;2023-12-22T07:06:59;1.67;99.42
43772;HTU21D;59066;54.782;32.024;2023-12-22T07:11:56;1.70;99.54
43772;HTU21D;59066;54.782;32.024;2023-12-22T07:14:24;1.72;99.52
43772;HTU21D;59066;54.782;32.024;2023-12-22T07:16:51;1.75;99.55
43772;HTU21D;59066;54.782;32.024;2023-12-22T07:19:19;1.80;99.54
43772;HTU21D;59066;54.782;32.024;2023-12-22T07:21:47;1.81;99.39
43772;HTU21D;59066;54.782;32.024;2023-12-22T07:24:15;1.76;99.09
43772;HTU21D;59066;54.782;32.024;2023-12-22T07:26:43;1.73;99.16
43772;HTU21D;59066;54.782;32.024;2023-12-22T07:29:12;1.70;99.08
43772;HTU21D;59066;54.782;32.024;2023-12-22T07:31:40;1.69;99.20
43772;HTU21D;59066;54.782;32.024;2023-12-22T07:34:08;1.76;99.27
43772;HTU21D;59066;54.782;32.024;2023-12-22T07:36:37;1.75;99.19
43772;HTU21D;59066;54.782;32.024;2023-12-22T07:39:09;1.79;99.21
43772;HTU21D;59066;54.782;32.024;2023-12-22T07:41:38;1.82;99.13
43772;HTU21D;59066;54.782;32.024;2023-12-22T07:44:06;1.82;99.09
43772;HTU21D;59066;54.782;32.024;2023-12-22T07:46:34;1.82;98.92
43772;HTU21D;59066;54.782;32.024;2023-12-22T07:49:01;1.79;98.87
43772;HTU21D;59066;54.782;32.024;2023-12-22T07:51:29;1.77;98.86
43772;HTU21D;59066;54.782;32.024;2023-12-22T07:53:57;1.76;99.00
43772;HTU21D;59066;54.782;32.024;2023-12-22T07:56:25;1.72;98.92
43772;HTU21D;59066;54.782;32.024;2023-12-22T07:58:52;1.75;99.02
43772;HTU21D;59066;54.782;32.024;2023-12-22T08:01:27;1.70;99.19
43772;HTU21D;59066;54.782;32.024;2023-12-22T08:03:55;1.75;99.20
43772;HTU21D;59066;54.782;32.024;2023-12-22T08:06:23;1.76;98.95
43772;HTU21D;59066;54.782;32.024;2023-12-22T08:08:51;1.72;99.14
43772;HTU21D;59066;54.782;32.024;2023-12-22T08:11:19;1.70;99.24
43772;HTU21D;59066;54.782;32.024;2023-12-22T08:13:47;1.71;99.48
43772;HTU21D;59066;54.782;32.024;2023-12-22T08:16:15;1.76;99.43
43772;HTU21D;59066;54.782;32.024;2023-12-22T08:18:42;1.76;99.49
43772;HTU21D;59066;54.782;32.024;2023-12-22T08:21:10;1.79;99.67
43772;HTU21D;59066;54.782;32.024;2023-12-22T08:23:43;1.80;99.55
43772;HTU21D;59066;54.782;32.024;2023-12-22T08:26:14;1.81;99.37
43772;HTU21D;59066;54.782;32.024;2023-12-22T08:28:44;1.80;99.54
43772;HTU21D;59066;54.782;32.024;2023-12-22T08:31:12;1.82;99.39
43772;HTU21D;59066;54.782;32.024;2023-12-22T08:33:40;1.81;99.38
43772;HTU21D;59066;54.782;32.024;2023-12-22T08:36:09;1.86;99.51
43772;HTU21D;59066;54.782;32.024;2023-12-22T08:38:37;1.85;99.49
43772;HTU21D;59066;54.782;32.024;2023-12-22T08:41:08;1.90;99.51
43772;HTU21D;59066;54.782;32.024;2023-12-22T08:43:35;1.87;99.29
43772;HTU21D;59066;54.782;32.024;2023-12-22T08:46:03;1.93;99.35
43772;HTU21D;59066;54.782;32.024;2023-12-22T08:48:31;1.95;99.26
43772;HTU21D;59066;54.782;32.024;2023-12-22T08:51:00;1.96;99.09
43772;HTU21D;59066;54.782;32.024;2023-12-22T08:53:28;1.92;99.09
43772;HTU21D;59066;54.782;32.024;2023-12-22T08:56:00;1.93;99.25
43772;HTU21D;59066;54.782;32.024;2023-12-22T08:58:29;1.95;99.26
43772;HTU21D;59066;54.782;32.024;2023-12-22T09:00:56;1.94;99.07
43772;HTU21D;59066;54.782;32.024;2023-12-22T09:03:24;1.90;99.05
43772;HTU21D;59066;54.782;32.024;2023-12-22T09:05:51;1.87;99.06
43772;HTU21D;59066;54.782;32.024;2023-12-22T09:08:19;1.86;99.15
43772;HTU21D;59066;54.782;32.024;2023-12-22T09:10:47;1.84;98.92
43772;HTU21D;59066;54.782;32.024;2023-12-22T09:13:16;1.86;99.26
43772;HTU21D;59066;54.782;32.024;2023-12-22T09:15:44;1.88;99.18
43772;HTU21D;59066;54.782;32.024;2023-12-22T09:18:14;1.86;99.11
43772;HTU21D;59066;54.782;32.024;2023-12-22T09:20:42;1.83;99.09
43772;HTU21D;59066;54.782;32.024;2023-12-22T09:23:10;1.81;98.96
43772;HTU21D;59066;54.782;32.024;2023-12-22T09:25:37;1.84;99.00
43772;HTU21D;59066;54.782;32.024;2023-12-22T09:28:06;1.84;98.77
43772;HTU21D;59066;54.782;32.024;2023-12-22T09:30:34;1.77;98.80
43772;HTU21D;59066;54.782;32.024;2023-12-22T09:33:02;1.77;98.87
43772;HTU21D;59066;54.782;32.024;2023-12-22T09:35:30;1.73;98.69
43772;HTU21D;59066;54.782;32.024;2023-12-22T09:37:57;1.71;98.98
43772;HTU21D;59066;54.782;32.024;2023-12-22T09:40:26;1.72;99.07
43772;HTU21D;59066;54.782;32.024;2023-12-22T09:42:57;1.78;99.11
43772;HTU21D;59066;54.782;32.024;2023-12-22T09:45:26;1.78;99.11
43772;HTU21D;59066;54.782;32.024;2023-12-22T09:47:54;1.83;99.01
43772;HTU21D;59066;54.782;32.024;2023-12-22T09:50:24;1.75;98.75
43772;HTU21D;59066;54.782;32.024;2023-12-22T09:52:51;1.68;98.98
43772;HTU21D;59066;54.782;32.024;2023-12-22T09:55:21;1.72;99.16
43772;HTU21D;59066;54.782;32.024;2023-12-22T09:57:51;1.76;99.20
43772;HTU21D;59066;54.782;32.024;2023-12-22T10:00:20;1.70;99.06
43772;HTU21D;59066;54.782;32.024;2023-12-22T10:02:49;1.73;98.98
43772;HTU21D;59066;54.782;32.024;2023-12-22T10:05:16;1.71;98.99
43772;HTU21D;59066;54.782;32.024;2023-12-22T10:07:46;1.76;99.35
43772;HTU21D;59066;54.782;32.024;2023-12-22T10:10:15;1.79;99.23
43772;HTU21D;59066;54.782;32.024;2023-12-22T10:12:44;1.81;98.99
43772;HTU21D;59066;54.782;32.024;2023-12-22T10:15:13;1.77;98.92
43772;HTU21D;59066;54.782;32.024;2023-12-22T10:17:41;1.82;99.06
43772;HTU21D;59066;54.782;32.024;2023-12-22T10:20:10;1.78;98.97
43772;HTU21D;59066;54.782;32.024;2023-12-22T10:22:38;1.85;99.24
43772;HTU21D;59066;54.782;32.024;2023-12-22T10:25:08;1.85;99.07
43772;HTU21D;59066;54.782;32.024;2023-12-22T10:27:36;1.83;98.85
43772;HTU21D;59066;54.782;32.024;2023-12-22T10:30:04;1.83;98.98
43772;HTU21D;59066;54.782;32.024;2023-12-22T10:32:32;1.84;99.22
43772;HTU21D;59066;54.782;32.024;2023-12-22T10:34:59;1.82;99.22
43772;HTU21D;59066;54.782;32.024;2023-12-22T10:37:27;1.83;99.18
43772;HTU21D;59066;54.782;32.024;2023-12-22T10:39:55;1.88;99.16
43772;HTU21D;59066;54.782;32.024;2023-12-22T10:42:23;1.87;98.95
43772;HTU21D;59066;54.782;32.024;2023-12-22T10:44:51;1.84;99.13
43772;HTU21D;59066;54.782;32.024;2023-12-22T10:47:20;1.85;99.26
43772;HTU21D;59066;54.782;32.024;2023-12-22T10:49:49;1.81;98.99
43772;HTU21D;59066;54.782;32.024;2023-12-22T10:52:18;1.84;99.32
43772;HTU21D;59066;54.782;32.024;2023-12-22T10:54:51;1.82;99.12
43772;HTU21D;59066;54.782;32.024;2023-12-22T10:57:19;1.84;99.22
43772;HTU21D;59066;54.782;32.024;2023-12-22T10:59:48;1.82;99.14
43772;HTU21D;59066;54.782;32.024;2023-12-22T11:02:22;1.78;99.29
43772;HTU21D;59066;54.782;32.024;2023-12-22T11:05:04;1.81;99.26
43772;HTU21D;59066;54.782;32.024;2023-12-22T11:07:36;1.82;99.19
43772;HTU21D;59066;54.782;32.024;2023-12-22T11:10:06;1.87;99.27
43772;HTU21D;59066;54.782;32.024;2023-12-22T11:12:38;1.81;98.90
43772;HTU21D;59066;54.782;32.024;2023-12-22T11:15:06;1.75;99.03
43772;HTU21D;59066;54.782;32.024;2023-12-22T11:17:35;1.73;99.12
43772;HTU21D;59066;54.782;32.024;2023-12-22T11:20:10;1.65;98.93
43772;HTU21D;59066;54.782;32.024;2023-12-22T11:22:40;1.63;98.90
43772;HTU21D;59066;54.782;32.024;2023-12-22T11:25:09;1.64;99.07
43772;HTU21D;59066;54.782;32.024;2023-12-22T11:27:40;1.66;99.09
43772;HTU21D;59066;54.782;32.024;2023-12-22T11:30:09;1.66;98.93
43772;HTU21D;59066;54.782;32.024;2023-12-22T11:32:37;1.64;98.97
43772;HTU21D;59066;54.782;32.024;2023-12-22T11:35:07;1.64;99.09
43772;HTU21D;59066;54.782;32.024;2023-12-22T11:37:39;1.64;98.90
43772;HTU21D;59066;54.782;32.024;2023-12-22T11:40:07;1.62;99.05
43772;HTU21D;59066;54.782;32.024;2023-12-22T11:42:42;1.63;99.06
43772;HTU21D;59066;54.782;32.024;2023-12-22T11:45:13;1.60;99.06
43772;HTU21D;59066;54.782;32.024;2023-12-22T11:47:43;1.58;99.17
43772;HTU21D;59066;54.782;32.024;2023-12-22T11:50:12;1.57;98.96
43772;HTU21D;59066;54.782;32.024;2023-12-22T11:52:39;1.53;99.34
43772;HTU21D;59066;54.782;32.024;2023-12-22T11:55:07;1.54;99.40
43772;HTU21D;59066;54.782;32.024;2023-12-22T11:57:36;1.55;99.42
43772;HTU21D;59066;54.782;32.024;2023-12-22T12:02:40;1.52;99.51
43772;HTU21D;59066;54.782;32.024;2023-12-22T12:05:09;1.49;99.29
43772;HTU21D;59066;54.782;32.024;2023-12-22T12:07:47;1.43;99.38
43772;HTU21D;59066;54.782;32.024;2023-12-22T12:10:51;1.45;99.54
43772;HTU21D;59066;54.782;32.024;2023-12-22T12:13:25;1.48;99.67
43772;HTU21D;59066;54.782;32.024;2023-12-22T12:15:55;1.52;99.89
43772;HTU21D;59066;54.782;32.024;2023-12-22T12:18:29;1.51;99.84
43772;HTU21D;59066;54.782;32.024;2023-12-22T12:20:57;1.53;99.68
43772;HTU21D;59066;54.782;32.024;2023-12-22T12:23:26;1.55;99.71
43772;HTU21D;59066;54.782;32.024;2023-12-22T12:25:56;1.48;99.73
43772;HTU21D;59066;54.782;32.024;2023-12-22T12:28:29;1.49;99.73
43772;HTU21D;59066;54.782;32.024;2023-12-22T12:31:07;1.45;99.63
43772;HTU21D;59066;54.782;32.024;2023-12-22T12:33:35;1.45;99.72
43772;HTU21D;59066;54.782;32.024;2023-12-22T12:36:04;1.47;100.13
43772;HTU21D;59066;54.782;32.024;2023-12-22T12:41:30;1.45;99.95
43772;HTU21D;59066;54.782;32.024;2023-12-22T12:44:03;1.41;99.92
43772;HTU21D;59066;54.782;32.024;2023-12-22T12:46:39;1.42;99.96
43772;HTU21D;59066;54.782;32.024;2023-12-22T12:49:11;1.46;100.19
43772;HTU21D;59066;54.782;32.024;2023-12-22T12:51:44;1.46;100.31
43772;HTU21D;59066;54.782;32.024;2023-12-22T12:54:13;1.45;100.19
43772;HTU21D;59066;54.782;32.024;2023-12-22T12:56:42;1.46;100.21
43772;HTU21D;59066;54.782;32.024;2023-12-22T12:59:14;1.40;100.23
43772;HTU21D;59066;54.782;32.024;2023-12-22T13:01:44;1.42;100.41
43772;HTU21D;59066;54.782;32.024;2023-12-22T13:04:13;1.42;100.54
43772;HTU21D;59066;54.782;32.024;2023-12-22T13:06:50;1.40;100.46
43772;HTU21D;59066;54.782;32.024;2023-12-22T13:09:18;1.38;100.56
43772;HTU21D;59066;54.782;32.024;2023-12-22T13:11:46;1.37;100.58
43772;HTU21D;59066;54.782;32.024;2023-12-22T13:14:24;1.37;100.74
43772;HTU21D;59066;54.782;32.024;2023-12-22T13:16:57;1.40;100.96
43772;HTU21D;59066;54.782;32.024;2023-12-22T13:19:26;1.42;101.12
43772;HTU21D;59066;54.782;32.024;2023-12-22T13:21:54;1.41;100.88
43772;HTU21D;59066;54.782;32.024;2023-12-22T13:24:22;1.40;100.81
43772;HTU21D;59066;54.782;32.024;2023-12-22T13:27:04;1.35;101.12
43772;HTU21D;59066;54.782;32.024;2023-12-22T13:29:44;1.37;101.19
43772;HTU21D;59066;54.782;32.024;2023-12-22T13:32:19;1.37;101.24
43772;HTU21D;59066;54.782;32.024;2023-12-22T13:34:54;1.38;101.28
43772;HTU21D;59066;54.782;32.024;2023-12-22T13:37:23;1.35;101.25
43772;HTU21D;59066;54.782;32.024;2023-12-22T13:39:54;1.36;101.44
43772;HTU21D;59066;54.782;32.024;2023-12-22T13:42:21;1.34;101.29
43772;HTU21D;59066;54.782;32.024;2023-12-22T13:44:50;1.34;101.39
43772;HTU21D;59066;54.782;32.024;2023-12-22T13:47:20;1.32;101.48
43772;HTU21D;59066;54.782;32.024;2023-12-22T13:49:48;1.34;101.49
43772;HTU21D;59066;54.782;32.024;2023-12-22T13:52:29;1.31;101.35
43772;HTU21D;59066;54.782;32.024;2023-12-22T13:55:10;1.29;101.53
43772;HTU21D;59066;54.782;32.024;2023-12-22T13:57:38;1.25;101.57
43772;HTU21D;59066;54.782;32.024;2023-12-22T14:02:46;1.27;101.83
43772;HTU21D;59066;54.782;32.024;2023-12-22T14:05:19;1.31;101.73
43772;HTU21D;59066;54.782;32.024;2023-12-22T14:07:48;1.32;101.79
43772;HTU21D;59066;54.782;32.024;2023-12-22T14:10:16;1.33;101.75
43772;HTU21D;59066;54.782;32.024;2023-12-22T14:12:44;1.32;101.93
43772;HTU21D;59066;54.782;32.024;2023-12-22T14:15:12;1.35;101.83
43772;HTU21D;59066;54.782;32.024;2023-12-22T14:17:41;1.32;101.67
43772;HTU21D;59066;54.782;32.024;2023-12-22T14:20:09;1.29;102.07
43772;HTU21D;59066;54.782;32.024;2023-12-22T14:22:37;1.24;101.93
43772;HTU21D;59066;54.782;32.024;2023-12-22T14:25:06;1.29;102.19
43772;HTU21D;59066;54.782;32.024;2023-12-22T14:27:34;1.26;102.18
43772;HTU21D;59066;54.782;32.024;2023-12-22T14:30:02;1.27;102.01
43772;HTU21D;59066;54.782;32.024;2023-12-22T14:32:30;1.29;102.14
43772;HTU21D;59066;54.782;32.024;2023-12-22T14:34:58;1.29;102.13
43772;HTU21D;59066;54.782;32.024;2023-12-22T14:37:28;1.26;102.09
43772;HTU21D;59066;54.782;32.024;2023-12-22T14:39:56;1.32;102.34
43772;HTU21D;59066;54.782;32.024;2023-12-22T14:42:23;1.31;102.24
43772;HTU21D;59066;54.782;32.024;2023-12-22T14:44:51;1.41;102.34
43772;HTU21D;59066;54.782;32.024;2023-12-22T14:47:19;1.31;102.15
43772;HTU21D;59066;54.782;32.024;2023-12-22T14:49:46;1.36;102.37
43772;HTU21D;59066;54.782;32.024;2023-12-22T14:52:14;1.41;102.54
43772;HTU21D;59066;54.782;32.024;2023-12-22T14:54:42;1.41;102.23
43772;HTU21D;59066;54.782;32.024;2023-12-22T14:57:09;1.37;102.04
43772;HTU21D;59066;54.782;32.024;2023-12-22T14:59:37;1.33;101.99
43772;HTU21D;59066;54.782;32.024;2023-12-22T15:02:05;1.29;102.31
43772;HTU21D;59066;54.782;32.024;2023-12-22T15:04:33;1.33;102.38
43772;HTU21D;59066;54.782;32.024;2023-12-22T15:07:01;1.36;102.51
43772;HTU21D;59066;54.782;32.024;2023-12-22T15:09:30;1.42;102.44
43772;HTU21D;59066;54.782;32.024;2023-12-22T15:11:57;1.38;102.22
43772;HTU21D;59066;54.782;32.024;2023-12-22T15:14:25;1.40;102.28
43772;HTU21D;59066;54.782;32.024;2023-12-22T15:16:53;1.42;102.31
43772;HTU21D;59066;54.782;32.024;2023-12-22T15:19:20;1.40;102.19
43772;HTU21D;59066;54.782;32.024;2023-12-22T15:21:48;1.40;102.17
43772;HTU21D;59066;54.782;32.024;2023-12-22T15:24:16;1.38;102.25
43772;HTU21D;59066;54.782;32.024;2023-12-22T15:26:44;1.37;102.09
43772;HTU21D;59066;54.782;32.024;2023-12-22T15:29:12;1.37;102.15
43772;HTU21D;59066;54.782;32.024;2023-12-22T15:31:39;1.36;102.25
43772;HTU21D;59066;54.782;32.024;2023-12-22T15:34:07;1.39;102.18